createdAt,value
2023-04-18T00:02:24.261Z,20.13
2023-04-18T00:04:52.764Z,15.55
2023-04-18T00:07:23.352Z,19.67
2023-04-18T00:09:51.793Z,17.90
2023-04-18T00:12:20.926Z,17.90
2023-04-18T00:14:50.351Z,17.10
2023-04-18T00:17:20.788Z,18.38
2023-04-18T00:19:50.271Z,18.55
2023-04-18T00:22:22.252Z,16.85
2023-04-18T00:24:53.171Z,17.23
2023-04-18T00:27:22.636Z,20.27
2023-04-18T00:29:51.069Z,17.77
2023-04-18T00:32:19.889Z,19.92
2023-04-18T00:34:48.677Z,19.15
2023-04-18T00:37:17.254Z,17.25
2023-04-18T00:39:46.713Z,19.73
2023-04-18T00:42:16.442Z,18.90
2023-04-18T00:44:44.767Z,16.08
2023-04-18T00:47:13.611Z,20.05
2023-04-18T00:49:41.993Z,17.50
2023-04-18T00:52:11.562Z,18.08
2023-04-18T00:54:40.641Z,18.20
2023-04-18T00:57:09.818Z,19.40
2023-04-18T00:59:39.868Z,19.95
2023-04-18T01:02:10.026Z,17.10
2023-04-18T01:04:38.597Z,19.25
2023-04-18T01:07:10.594Z,18.13
2023-04-18T01:09:39.320Z,17.38
2023-04-18T01:12:07.710Z,18.48
2023-04-18T01:14:36.797Z,18.05
2023-04-18T01:17:08.054Z,19.83
2023-04-18T01:19:36.804Z,19.55
2023-04-18T01:22:05.199Z,17.77
2023-04-18T01:24:36.520Z,18.85
2023-04-18T01:27:05.859Z,21.17
2023-04-18T01:29:36.752Z,20.65
2023-04-18T01:32:07.318Z,19.88
2023-04-18T01:34:36.113Z,18.95
2023-04-18T01:37:07.989Z,21.45
2023-04-18T01:39:37.726Z,20.75
2023-04-18T01:42:07.272Z,19.23
2023-04-18T01:44:35.708Z,23.63
2023-04-18T01:47:04.282Z,19.73
2023-04-18T01:49:34.376Z,22.05
2023-04-18T01:52:03.228Z,18.90
2023-04-18T01:54:31.598Z,19.08
2023-04-18T01:57:01.358Z,21.05
2023-04-18T01:59:30.679Z,25.95
2023-04-18T02:02:00.225Z,20.83
2023-04-18T02:04:28.814Z,20.25
2023-04-18T02:06:57.223Z,23.80
2023-04-18T02:09:26.639Z,24.67
2023-04-18T02:11:56.271Z,20.98
2023-04-18T02:14:28.112Z,25.40
2023-04-18T02:16:56.557Z,26.83
2023-04-18T02:19:25.714Z,22.60
2023-04-18T02:21:54.156Z,25.42
2023-04-18T02:24:23.003Z,22.10
2023-04-18T02:26:52.062Z,22.75
2023-04-18T02:29:20.968Z,21.75
2023-04-18T02:31:51.172Z,20.85
2023-04-18T02:34:19.607Z,22.95
2023-04-18T02:36:50.407Z,22.25
2023-04-18T02:39:18.789Z,25.55
2023-04-18T02:41:48.145Z,25.88
2023-04-18T02:44:17.423Z,22.90
2023-04-18T02:46:45.919Z,21.65
2023-04-18T02:49:17.131Z,24.92
2023-04-18T02:51:46.566Z,22.30
2023-04-18T02:54:15.800Z,23.35
2023-04-18T02:56:57.406Z,24.52
2023-04-18T02:59:53.867Z,27.17
2023-04-18T03:02:48.235Z,24.35
2023-04-18T03:05:40.618Z,29.40
2023-04-18T03:08:09.618Z,26.17
2023-04-18T03:10:39.969Z,27.60
2023-04-18T03:13:08.843Z,28.25
2023-04-18T03:15:38.848Z,24.80
2023-04-18T03:18:08.913Z,28.60
2023-04-18T03:20:42.489Z,28.67
2023-04-18T03:23:10.871Z,30.45
2023-04-18T03:25:40.746Z,27.88
2023-04-18T03:28:09.558Z,27.63
2023-04-18T03:30:38.547Z,26.80
2023-04-18T03:33:08.605Z,29.75
2023-04-18T03:35:38.114Z,27.38
2023-04-18T03:38:08.651Z,25.50
2023-04-18T03:40:40.148Z,26.75
2023-04-18T03:43:17.164Z,28.40
2023-04-18T03:45:47.292Z,26.13
2023-04-18T03:48:18.756Z,30.58
2023-04-18T03:50:48.655Z,32.00
2023-04-18T03:53:18.768Z,28.50
2023-04-18T03:55:49.105Z,35.97
2023-04-18T03:58:23.678Z,27.33
2023-04-18T04:00:54.483Z,31.70
2023-04-18T04:03:23.354Z,31.80
2023-04-18T04:05:52.104Z,28.95
2023-04-18T04:08:23.451Z,31.65
2023-04-18T04:10:52.229Z,27.33
2023-04-18T04:13:21.070Z,29.63
2023-04-18T04:15:50.308Z,28.27
2023-04-18T04:18:19.599Z,31.13
2023-04-18T04:20:49.807Z,28.38
2023-04-18T04:23:33.150Z,29.93
2023-04-18T04:26:04.690Z,28.37
2023-04-18T04:28:42.812Z,33.00
2023-04-18T04:31:13.016Z,27.58
2023-04-18T04:33:43.518Z,31.67
2023-04-18T04:36:19.503Z,28.53
2023-04-18T04:38:54.721Z,31.50
2023-04-18T04:41:53.490Z,32.53
2023-04-18T04:44:26.127Z,30.80
2023-04-18T04:46:56.044Z,32.17
2023-04-18T04:49:29.957Z,31.45
2023-04-18T04:52:01.322Z,29.33
2023-04-18T04:54:31.876Z,31.88
2023-04-18T04:57:01.954Z,30.00
2023-04-18T04:59:30.817Z,32.23
2023-04-18T05:01:59.258Z,35.53
2023-04-18T05:04:29.472Z,31.73
2023-04-18T05:06:58.558Z,32.63
2023-04-18T05:09:27.942Z,29.40
2023-04-18T05:11:57.898Z,31.73
2023-04-18T05:14:26.388Z,33.00
2023-04-18T05:16:56.873Z,31.47
2023-04-18T05:19:25.283Z,35.40
2023-04-18T05:21:54.532Z,33.58
2023-04-18T05:24:22.892Z,34.50
2023-04-18T05:26:52.133Z,33.87
2023-04-18T05:29:22.324Z,37.90
2023-04-18T05:31:51.941Z,33.97
2023-04-18T05:34:20.956Z,37.23
2023-04-18T05:36:49.498Z,31.33
2023-04-18T05:39:18.936Z,32.90
2023-04-18T05:41:47.452Z,31.38
2023-04-18T05:44:18.473Z,32.88
2023-04-18T05:46:51.344Z,31.65
2023-04-18T05:49:20.506Z,33.28
2023-04-18T05:51:49.963Z,31.70
2023-04-18T05:54:18.539Z,27.67
2023-04-18T05:56:46.930Z,25.75
2023-04-18T05:59:16.119Z,27.10
2023-04-18T06:01:44.533Z,30.05
2023-04-18T06:04:15.353Z,28.55
2023-04-18T06:06:44.197Z,28.92
2023-04-18T06:09:12.635Z,33.50
2023-04-18T06:11:41.602Z,32.78
2023-04-18T06:14:10.048Z,31.88
2023-04-18T06:16:39.462Z,31.30
2023-04-18T06:19:07.955Z,32.53
2023-04-18T06:21:38.586Z,32.83
2023-04-18T06:24:07.627Z,35.47
2023-04-18T06:26:36.806Z,38.47
2023-04-18T06:29:05.254Z,32.63
2023-04-18T06:31:34.030Z,33.22
2023-04-18T06:34:02.492Z,35.17
2023-04-18T06:36:31.899Z,36.05
2023-04-18T06:39:01.670Z,32.38
2023-04-18T06:41:30.096Z,33.10
2023-04-18T06:44:04.234Z,35.37
2023-04-18T06:46:33.423Z,31.45
2023-04-18T06:49:02.743Z,35.42
2023-04-18T06:51:31.598Z,31.35
2023-04-18T06:54:02.987Z,32.30
2023-04-18T06:56:31.445Z,33.83
2023-04-18T06:59:00.216Z,31.73
2023-04-18T07:01:28.630Z,32.17
2023-04-18T07:03:57.082Z,30.08
2023-04-18T07:06:26.228Z,28.42
2023-04-18T07:09:00.018Z,28.95
2023-04-18T07:11:30.258Z,30.75
2023-04-18T07:13:58.703Z,26.25
2023-04-18T07:16:27.089Z,27.33
2023-04-18T07:18:56.326Z,27.27
2023-04-18T07:21:24.872Z,30.27
2023-04-18T07:23:53.687Z,26.33
2023-04-18T07:26:22.079Z,25.90
2023-04-18T07:28:52.273Z,27.25
2023-04-18T07:31:21.254Z,26.30
2023-04-18T07:33:49.675Z,27.13
2023-04-18T07:36:18.715Z,30.33
2023-04-18T07:38:47.364Z,25.02
2023-04-18T07:41:16.595Z,26.60
2023-04-18T07:43:46.026Z,26.58
2023-04-18T07:46:16.182Z,26.07
2023-04-18T07:48:44.649Z,26.92
2023-04-18T07:51:13.534Z,28.55
2023-04-18T07:53:43.560Z,27.85
2023-04-18T07:56:14.946Z,25.77
2023-04-18T07:58:43.283Z,27.95
2023-04-18T08:01:14.077Z,27.17
2023-04-18T08:03:44.042Z,25.58
2023-04-18T08:06:13.535Z,23.88
2023-04-18T08:08:42.055Z,24.27
2023-04-18T08:11:11.624Z,24.20
2023-04-18T08:13:40.459Z,25.23
2023-04-18T08:16:09.843Z,27.15
2023-04-18T08:18:39.188Z,27.40
2023-04-18T08:21:09.148Z,25.30
2023-04-18T08:23:37.962Z,26.52
2023-04-18T08:26:06.529Z,23.95
2023-04-18T08:28:35.379Z,23.77
2023-04-18T08:31:03.836Z,23.42
2023-04-18T08:33:33.840Z,21.98
2023-04-18T08:36:02.178Z,22.63
2023-04-18T08:38:32.991Z,24.58
2023-04-18T08:41:01.416Z,20.45
2023-04-18T08:43:31.329Z,21.67
2023-04-18T08:46:01.547Z,22.38
2023-04-18T08:48:30.600Z,22.23
2023-04-18T08:51:00.417Z,21.52
2023-04-18T08:53:29.256Z,18.60
2023-04-18T08:56:00.932Z,20.45
2023-04-18T08:58:32.281Z,17.75
2023-04-18T09:01:01.903Z,16.95
2023-04-18T09:03:39.678Z,18.65
2023-04-18T09:06:10.325Z,18.85
2023-04-18T09:08:39.134Z,20.42
2023-04-18T09:11:29.661Z,17.88
2023-04-18T09:13:59.865Z,18.17
2023-04-18T09:16:30.292Z,17.45
2023-04-18T09:19:14.413Z,15.95
2023-04-18T09:21:46.598Z,16.73
2023-04-18T09:24:21.129Z,17.92
2023-04-18T09:26:54.266Z,14.18
2023-04-18T09:29:23.904Z,15.90
2023-04-18T09:31:57.334Z,17.25
2023-04-18T09:34:26.877Z,16.55
2023-04-18T09:37:10.978Z,18.48
2023-04-18T09:39:40.688Z,15.57
2023-04-18T09:42:11.735Z,19.17
2023-04-18T09:45:00.310Z,17.55
2023-04-18T09:47:29.371Z,16.55
2023-04-18T09:49:58.847Z,15.93
2023-04-18T09:52:27.239Z,14.73
2023-04-18T09:55:00.934Z,16.25
2023-04-18T09:57:32.991Z,17.15
2023-04-18T10:00:10.481Z,16.17
2023-04-18T10:02:52.354Z,18.13
2023-04-18T10:05:25.095Z,19.33
2023-04-18T10:07:54.368Z,19.77
2023-04-18T10:10:23.277Z,19.20
2023-04-18T10:12:56.399Z,16.75
2023-04-18T10:15:28.481Z,16.92
2023-04-18T10:18:05.623Z,16.70
2023-04-18T10:20:36.164Z,20.02
2023-04-18T10:23:36.424Z,17.50
2023-04-18T10:26:06.161Z,18.15
2023-04-18T10:28:57.090Z,16.35
2023-04-18T10:31:27.032Z,14.43
2023-04-18T10:36:30.318Z,12.63
2023-04-18T10:39:03.540Z,11.60
2023-04-18T10:41:33.083Z,12.52
2023-04-18T10:44:18.665Z,11.02
2023-04-18T10:47:22.942Z,10.13
2023-04-18T10:49:58.755Z,11.57
2023-04-18T10:52:28.424Z,11.73
2023-04-18T10:55:09.465Z,10.95
2023-04-18T10:57:46.089Z,11.45
2023-04-18T11:00:22.092Z,9.65
2023-04-18T11:02:53.691Z,11.38
2023-04-18T11:05:25.853Z,11.07
2023-04-18T11:07:54.653Z,10.88
2023-04-18T11:10:26.778Z,9.02
2023-04-18T11:12:56.456Z,9.77
2023-04-18T11:15:29.145Z,10.75
2023-04-18T11:18:01.130Z,9.40
2023-04-18T11:20:30.058Z,9.60
2023-04-18T11:23:00.624Z,9.50
2023-04-18T11:25:30.505Z,8.98
2023-04-18T11:28:01.310Z,10.23
2023-04-18T11:30:38.496Z,10.27
2023-04-18T11:33:09.231Z,14.18
2023-04-18T11:35:38.632Z,10.23
2023-04-18T11:38:08.671Z,9.48
2023-04-18T11:40:38.679Z,9.10
2023-04-18T11:43:08.928Z,14.05
2023-04-18T11:45:39.281Z,12.15
2023-04-18T11:48:07.768Z,11.23
2023-04-18T11:50:38.165Z,17.30
2023-04-18T11:53:06.946Z,10.88
2023-04-18T11:55:35.458Z,14.02
2023-04-18T11:58:06.555Z,10.38
2023-04-18T12:00:37.104Z,12.25
2023-04-18T12:03:13.369Z,12.93
2023-04-18T12:05:43.299Z,11.55
2023-04-18T12:08:14.048Z,10.25
2023-04-18T12:10:48.038Z,12.10
2023-04-18T12:13:18.986Z,11.68
2023-04-18T12:15:47.845Z,12.05
2023-04-18T12:18:19.796Z,14.27
2023-04-18T12:20:52.165Z,13.38
2023-04-18T12:23:31.015Z,12.95
2023-04-18T12:26:02.576Z,13.25
2023-04-18T12:28:31.589Z,13.32
2023-04-18T12:31:01.156Z,16.05
2023-04-18T12:33:31.705Z,17.67
2023-04-18T12:36:01.988Z,13.20
2023-04-18T12:38:30.354Z,16.25
2023-04-18T12:40:59.168Z,15.40
2023-04-18T12:43:27.746Z,15.90
2023-04-18T12:45:56.564Z,14.85
2023-04-18T12:48:24.930Z,15.73
2023-04-18T12:50:54.934Z,14.93
2023-04-18T12:53:24.205Z,15.45
2023-04-18T12:55:52.991Z,16.27
2023-04-18T12:58:21.766Z,18.75
2023-04-18T13:00:50.191Z,15.05
2023-04-18T13:03:19.187Z,17.17
2023-04-18T13:05:47.831Z,15.93
2023-04-18T13:08:18.377Z,16.70
2023-04-18T13:10:47.632Z,15.05
2023-04-18T13:13:16.568Z,13.98
2023-04-18T13:15:45.513Z,13.90
2023-04-18T13:18:14.330Z,15.98
2023-04-18T13:20:44.419Z,15.73
2023-04-18T13:23:12.785Z,13.90
2023-04-18T13:25:43.337Z,13.98
2023-04-18T13:28:11.696Z,15.55
2023-04-18T13:30:40.466Z,13.48
2023-04-18T13:33:10.266Z,14.27
2023-04-18T13:35:39.950Z,11.90
2023-04-18T13:38:08.354Z,13.48
2023-04-18T13:40:39.243Z,12.48
2023-04-18T13:43:10.906Z,11.48
2023-04-18T13:45:40.098Z,11.20
2023-04-18T13:48:08.939Z,10.25
2023-04-18T13:50:37.307Z,11.40
2023-04-18T13:53:06.151Z,11.15
2023-04-18T13:55:37.280Z,12.80
2023-04-18T13:58:07.942Z,10.80
2023-04-18T14:00:39.621Z,11.48
2023-04-18T14:03:08.708Z,11.65
2023-04-18T14:05:37.605Z,11.82
2023-04-18T14:08:06.517Z,11.23
2023-04-18T14:10:36.795Z,12.18
2023-04-18T14:13:05.143Z,10.85
2023-04-18T14:15:34.527Z,9.60
2023-04-18T14:18:04.594Z,11.43
2023-04-18T14:20:35.121Z,11.13
2023-04-18T14:23:03.501Z,9.80
2023-04-18T14:25:33.151Z,11.20
2023-04-18T14:28:07.876Z,11.85
2023-04-18T14:30:37.093Z,10.00
2023-04-18T14:33:09.717Z,11.57
2023-04-18T14:35:38.460Z,11.13
2023-04-18T14:38:07.475Z,10.27
2023-04-18T14:40:36.409Z,10.98
2023-04-18T14:43:04.779Z,14.13
2023-04-18T14:45:34.816Z,11.85
2023-04-18T14:48:03.969Z,11.48
2023-04-18T14:50:33.673Z,12.00
2023-04-18T14:53:02.770Z,14.77
2023-04-18T14:55:31.284Z,11.15
2023-04-18T14:58:00.165Z,11.00
2023-04-18T15:00:28.644Z,10.57
2023-04-18T15:02:57.769Z,10.48
2023-04-18T15:05:26.496Z,11.95
2023-04-18T15:07:56.451Z,10.98
2023-04-18T15:10:25.020Z,11.40
2023-04-18T15:12:54.920Z,9.85
2023-04-18T15:15:25.164Z,10.32
2023-04-18T15:17:53.529Z,10.60
2023-04-18T15:20:24.006Z,12.35
2023-04-18T15:22:52.687Z,10.80
2023-04-18T15:25:24.408Z,13.52
2023-04-18T15:27:53.199Z,11.98
2023-04-18T15:30:22.379Z,11.52
2023-04-18T15:32:52.176Z,12.48
2023-04-18T15:35:21.117Z,12.48
2023-04-18T15:37:51.285Z,12.65
2023-04-18T15:40:19.860Z,14.63
2023-04-18T15:42:53.557Z,13.10
2023-04-18T15:45:22.594Z,11.02
2023-04-18T15:47:52.052Z,12.55
2023-04-18T15:50:20.701Z,14.35
2023-04-18T15:52:49.828Z,12.88
2023-04-18T15:55:18.189Z,12.77
2023-04-18T15:57:48.207Z,12.23
2023-04-18T16:00:19.768Z,12.07
2023-04-18T16:02:48.969Z,12.52
2023-04-18T16:05:17.442Z,12.18
2023-04-18T16:07:46.490Z,11.25
2023-04-18T16:10:15.323Z,12.80
2023-04-18T16:12:44.212Z,11.65
2023-04-18T16:15:13.663Z,11.32
2023-04-18T16:17:44.282Z,12.25
2023-04-18T16:20:13.510Z,13.82
2023-04-18T16:22:42.136Z,16.88
2023-04-18T16:27:57.401Z,20.42
2023-04-18T16:30:25.769Z,11.85
2023-04-18T16:32:56.086Z,12.15
2023-04-18T16:35:24.768Z,15.02
2023-04-18T16:37:53.682Z,23.48
2023-04-18T16:40:22.076Z,19.15
2023-04-18T16:42:52.723Z,16.35
2023-04-18T16:45:21.528Z,12.93
2023-04-18T16:47:49.925Z,10.25
2023-04-18T16:50:20.532Z,10.70
2023-04-18T16:52:48.949Z,10.65
2023-04-18T16:55:18.861Z,10.93
2023-04-18T16:57:47.201Z,12.73
2023-04-18T17:00:16.624Z,12.80
2023-04-18T17:02:45.247Z,11.65
2023-04-18T17:05:14.618Z,12.38
2023-04-18T17:07:45.840Z,13.82
2023-04-18T17:10:15.051Z,12.95
2023-04-18T17:12:43.505Z,12.25
2023-04-18T17:15:12.570Z,14.95
2023-04-18T17:17:41.372Z,21.25
2023-04-18T17:20:10.977Z,18.77
2023-04-18T17:22:40.787Z,14.18
2023-04-18T17:25:12.166Z,16.38
2023-04-18T17:27:41.440Z,15.40
2023-04-18T17:30:11.520Z,13.07
2023-04-18T17:32:42.996Z,16.35
2023-04-18T17:35:11.527Z,14.23
2023-04-18T17:37:39.912Z,14.90
2023-04-18T17:40:11.888Z,13.55
2023-04-18T17:42:42.276Z,15.38
2023-04-18T17:45:11.231Z,13.48
2023-04-18T17:47:40.806Z,14.18
2023-04-18T17:50:10.176Z,13.77
2023-04-18T17:52:39.533Z,13.38
2023-04-18T17:55:10.825Z,14.88
2023-04-18T17:57:39.249Z,15.00
2023-04-18T18:00:12.187Z,12.90
2023-04-18T18:02:43.691Z,13.60
2023-04-18T18:05:14.131Z,14.60
2023-04-18T18:07:47.417Z,13.45
2023-04-18T18:10:19.961Z,13.40
2023-04-18T18:12:49.138Z,12.02
2023-04-18T18:15:18.973Z,12.65
2023-04-18T18:17:49.396Z,12.60
2023-04-18T18:20:19.064Z,11.20
2023-04-18T18:22:48.575Z,12.02
2023-04-18T18:25:18.347Z,14.43
2023-04-18T18:27:48.583Z,11.70
2023-04-18T18:30:17.268Z,13.48
2023-04-18T18:32:46.579Z,12.73
2023-04-18T18:35:16.191Z,13.93
2023-04-18T18:37:44.889Z,14.85
2023-04-18T18:40:15.155Z,13.30
2023-04-18T18:42:45.021Z,14.55
2023-04-18T18:45:15.027Z,16.42
2023-04-18T18:47:43.453Z,18.17
2023-04-18T18:50:12.744Z,15.90
2023-04-18T18:52:43.025Z,16.70
2023-04-18T18:55:13.687Z,14.10
2023-04-18T18:57:42.034Z,11.27
2023-04-18T19:00:13.761Z,12.00
2023-04-18T19:02:42.850Z,11.40
2023-04-18T19:05:12.742Z,10.25
2023-04-18T19:07:43.352Z,11.90
2023-04-18T19:10:12.177Z,11.48
2023-04-18T19:12:41.261Z,14.73
2023-04-18T19:15:10.743Z,19.10
2023-04-18T19:17:42.101Z,15.73
2023-04-18T19:20:10.724Z,12.23
2023-04-18T19:22:40.084Z,15.57
2023-04-18T19:25:09.918Z,22.77
2023-04-18T19:27:39.971Z,29.02
2023-04-18T19:30:10.573Z,16.10
2023-04-18T19:32:40.843Z,13.38
2023-04-18T19:35:13.077Z,11.02
2023-04-18T19:38:01.698Z,9.70
2023-04-18T19:40:30.820Z,8.90
2023-04-18T19:42:59.221Z,7.35
2023-04-18T19:45:28.772Z,9.68
2023-04-18T19:47:58.513Z,7.47
2023-04-18T19:50:27.601Z,7.75
2023-04-18T19:52:58.871Z,6.95
2023-04-18T19:55:27.515Z,7.90
2023-04-18T19:57:57.473Z,8.38
2023-04-18T20:00:25.876Z,6.88
2023-04-18T20:02:54.391Z,6.82
2023-04-18T20:05:24.753Z,9.75
2023-04-18T20:07:54.655Z,7.65
2023-04-18T20:10:23.157Z,8.68
2023-04-18T20:12:51.533Z,7.07
2023-04-18T20:15:20.300Z,6.93
2023-04-18T20:17:48.688Z,7.13
2023-04-18T20:20:17.619Z,7.68
2023-04-18T20:22:47.763Z,7.90
2023-04-18T20:25:17.888Z,6.85
2023-04-18T20:27:46.244Z,6.88
2023-04-18T20:30:15.821Z,7.60
2023-04-18T20:32:44.314Z,7.95
2023-04-18T20:35:13.739Z,7.22
2023-04-18T20:37:42.146Z,7.38
2023-04-18T20:40:13.895Z,9.30
2023-04-18T20:42:42.240Z,9.82
2023-04-18T20:45:11.722Z,9.23
2023-04-18T20:47:41.242Z,8.48
2023-04-18T20:50:10.650Z,7.63
2023-04-18T20:52:43.101Z,8.68
2023-04-18T20:55:13.146Z,8.48
2023-04-18T20:57:43.187Z,9.55
2023-04-18T21:00:13.894Z,8.15
2023-04-18T21:02:43.385Z,8.90
2023-04-18T21:05:12.046Z,9.00
2023-04-18T21:07:40.433Z,8.38
2023-04-18T21:10:09.951Z,8.57
2023-04-18T21:12:39.818Z,9.23
2023-04-18T21:15:09.678Z,8.52
2023-04-18T21:17:38.063Z,10.07
2023-04-18T21:20:08.513Z,9.38
2023-04-18T21:22:36.937Z,9.02
2023-04-18T21:25:07.390Z,9.75
2023-04-18T21:27:35.860Z,9.60
2023-04-18T21:30:07.878Z,9.70
2023-04-18T21:32:36.402Z,9.38
2023-04-18T21:35:06.377Z,9.95
2023-04-18T21:37:34.995Z,10.23
2023-04-18T21:40:04.941Z,10.63
2023-04-18T21:42:35.484Z,10.50
2023-04-18T21:45:04.161Z,10.90
2023-04-18T21:47:35.088Z,10.93
2023-04-18T21:50:04.154Z,11.40
2023-04-18T21:52:33.337Z,11.55
2023-04-18T21:55:01.772Z,11.32
2023-04-18T21:57:30.834Z,11.30
2023-04-18T21:59:59.757Z,11.55
2023-04-18T22:02:28.789Z,12.38
2023-04-18T22:04:59.548Z,13.77
2023-04-18T22:07:29.503Z,13.25
2023-04-18T22:10:00.329Z,13.55
2023-04-18T22:12:28.659Z,13.77
2023-04-18T22:14:58.113Z,12.90
2023-04-18T22:17:27.051Z,14.40
2023-04-18T22:19:56.447Z,17.67
2023-04-18T22:22:26.135Z,14.75
2023-04-18T22:24:55.294Z,15.52
2023-04-18T22:27:23.655Z,15.85
2023-04-18T22:29:52.554Z,17.08
2023-04-18T22:32:21.506Z,15.68
2023-04-18T22:34:49.870Z,16.40
2023-04-18T22:37:22.420Z,16.70
2023-04-18T22:39:59.371Z,17.30
2023-04-18T22:43:00.940Z,18.45
2023-04-18T22:45:29.305Z,18.42
2023-04-18T22:47:58.394Z,18.33
2023-04-18T22:50:27.372Z,18.48
2023-04-18T22:52:57.606Z,20.60
2023-04-18T22:55:27.371Z,17.52
2023-04-18T22:57:57.130Z,20.20
2023-04-18T23:00:25.442Z,17.77
2023-04-18T23:02:54.814Z,19.40
2023-04-18T23:05:23.828Z,19.13
2023-04-18T23:07:52.171Z,18.67
2023-04-18T23:10:22.195Z,17.25
2023-04-18T23:12:52.464Z,22.05
2023-04-18T23:15:22.856Z,17.77
2023-04-18T23:17:53.425Z,20.83
2023-04-18T23:20:24.114Z,22.83
2023-04-18T23:22:52.767Z,22.25
2023-04-18T23:25:22.687Z,17.50
2023-04-18T23:27:52.443Z,21.33
2023-04-18T23:30:22.525Z,20.20
2023-04-18T23:32:51.013Z,19.60
2023-04-18T23:35:20.179Z,20.65
2023-04-18T23:37:49.156Z,19.95
2023-04-18T23:40:17.897Z,18.67
2023-04-18T23:42:47.478Z,21.00
2023-04-18T23:45:17.345Z,18.90
2023-04-18T23:47:46.165Z,18.77
2023-04-18T23:50:14.541Z,19.70
2023-04-18T23:52:43.814Z,18.77
2023-04-18T23:55:12.278Z,19.25
2023-04-18T23:57:41.845Z,18.35
